sensor_id;sensor_type;location;lat;lon;timestamp;P1;durP1;ratioP1;P2;durP2;ratioP2
14306;SDS011;7237;49.500;11.400;2022-10-04T00:01:45;10.57;;;3.17;;
14306;SDS011;7237;49.500;11.400;2022-10-04T00:04:13;8.33;;;3.00;;
14306;SDS011;7237;49.500;11.400;2022-10-04T00:06:42;6.20;;;2.50;;
14306;SDS011;7237;49.500;11.400;2022-10-04T00:09:13;6.60;;;2.40;;
14306;SDS011;7237;49.500;11.400;2022-10-04T00:11:42;13.13;;;3.07;;
14306;SDS011;7237;49.500;11.400;2022-10-04T00:14:13;20.40;;;3.60;;
14306;SDS011;7237;49.500;11.400;2022-10-04T00:16:41;42.77;;;3.43;;
14306;SDS011;7237;49.500;11.400;2022-10-04T00:19:25;50.23;;;4.07;;
14306;SDS011;7237;49.500;11.400;2022-10-04T00:22:12;23.17;;;3.67;;
14306;SDS011;7237;49.500;11.400;2022-10-04T00:25:13;63.27;;;4.93;;
14306;SDS011;7237;49.500;11.400;2022-10-04T00:30:23;33.87;;;3.67;;
14306;SDS011;7237;49.500;11.400;2022-10-04T00:32:58;58.40;;;4.73;;
14306;SDS011;7237;49.500;11.400;2022-10-04T00:35:46;34.13;;;3.73;;
14306;SDS011;7237;49.500;11.400;2022-10-04T00:38:14;51.03;;;4.83;;
14306;SDS011;7237;49.500;11.400;2022-10-04T00:40:44;74.13;;;5.23;;
14306;SDS011;7237;49.500;11.400;2022-10-04T00:43:12;97.00;;;6.13;;
14306;SDS011;7237;49.500;11.400;2022-10-04T00:45:42;150.57;;;7.20;;
14306;SDS011;7237;49.500;11.400;2022-10-04T00:48:26;94.90;;;6.77;;
14306;SDS011;7237;49.500;11.400;2022-10-04T00:50:55;38.57;;;4.00;;
14306;SDS011;7237;49.500;11.400;2022-10-04T00:53:34;104.57;;;6.67;;
14306;SDS011;7237;49.500;11.400;2022-10-04T00:56:05;48.20;;;5.03;;
14306;SDS011;7237;49.500;11.400;2022-10-04T00:58:33;101.97;;;5.07;;
14306;SDS011;7237;49.500;11.400;2022-10-04T01:01:02;39.73;;;4.67;;
14306;SDS011;7237;49.500;11.400;2022-10-04T01:03:31;36.43;;;4.40;;
14306;SDS011;7237;49.500;11.400;2022-10-04T01:05:59;8.47;;;2.60;;
14306;SDS011;7237;49.500;11.400;2022-10-04T01:08:27;26.40;;;3.73;;
14306;SDS011;7237;49.500;11.400;2022-10-04T01:10:56;21.83;;;3.00;;
14306;SDS011;7237;49.500;11.400;2022-10-04T01:13:26;25.60;;;3.07;;
14306;SDS011;7237;49.500;11.400;2022-10-04T01:15:56;42.37;;;4.73;;
14306;SDS011;7237;49.500;11.400;2022-10-04T01:18:28;81.30;;;4.73;;
14306;SDS011;7237;49.500;11.400;2022-10-04T01:20:57;53.37;;;3.83;;
14306;SDS011;7237;49.500;11.400;2022-10-04T01:23:36;32.87;;;3.73;;
14306;SDS011;7237;49.500;11.400;2022-10-04T01:26:05;44.90;;;3.53;;
14306;SDS011;7237;49.500;11.400;2022-10-04T01:28:32;55.27;;;3.70;;
14306;SDS011;7237;49.500;11.400;2022-10-04T01:31:00;33.43;;;3.40;;
14306;SDS011;7237;49.500;11.400;2022-10-04T01:33:27;15.67;;;2.83;;
14306;SDS011;7237;49.500;11.400;2022-10-04T01:35:55;23.50;;;3.47;;
14306;SDS011;7237;49.500;11.400;2022-10-04T01:38:22;5.53;;;2.67;;
14306;SDS011;7237;49.500;11.400;2022-10-04T01:40:52;71.67;;;4.33;;
14306;SDS011;7237;49.500;11.400;2022-10-04T01:43:21;43.33;;;4.10;;
14306;SDS011;7237;49.500;11.400;2022-10-04T01:45:52;14.03;;;3.07;;
14306;SDS011;7237;49.500;11.400;2022-10-04T01:48:22;14.70;;;3.00;;
14306;SDS011;7237;49.500;11.400;2022-10-04T01:50:50;39.50;;;3.67;;
14306;SDS011;7237;49.500;11.400;2022-10-04T01:53:21;40.33;;;3.40;;
14306;SDS011;7237;49.500;11.400;2022-10-04T01:55:51;22.47;;;3.63;;
14306;SDS011;7237;49.500;11.400;2022-10-04T01:58:20;11.10;;;3.43;;
14306;SDS011;7237;49.500;11.400;2022-10-04T02:00:49;13.60;;;2.67;;
14306;SDS011;7237;49.500;11.400;2022-10-04T02:03:19;41.73;;;4.30;;
14306;SDS011;7237;49.500;11.400;2022-10-04T02:05:50;31.63;;;4.20;;
14306;SDS011;7237;49.500;11.400;2022-10-04T02:08:21;9.57;;;3.47;;
14306;SDS011;7237;49.500;11.400;2022-10-04T02:10:50;25.93;;;4.00;;
14306;SDS011;7237;49.500;11.400;2022-10-04T02:13:19;62.97;;;4.17;;
14306;SDS011;7237;49.500;11.400;2022-10-04T02:15:46;35.97;;;3.47;;
14306;SDS011;7237;49.500;11.400;2022-10-04T02:18:15;17.20;;;3.30;;
14306;SDS011;7237;49.500;11.400;2022-10-04T02:20:44;28.97;;;3.90;;
14306;SDS011;7237;49.500;11.400;2022-10-04T02:23:14;17.80;;;3.67;;
14306;SDS011;7237;49.500;11.400;2022-10-04T02:25:42;7.73;;;2.90;;
14306;SDS011;7237;49.500;11.400;2022-10-04T02:28:11;23.97;;;4.40;;
14306;SDS011;7237;49.500;11.400;2022-10-04T02:30:40;8.77;;;2.50;;
14306;SDS011;7237;49.500;11.400;2022-10-04T02:33:07;31.03;;;3.60;;
14306;SDS011;7237;49.500;11.400;2022-10-04T02:35:35;10.10;;;2.97;;
14306;SDS011;7237;49.500;11.400;2022-10-04T02:38:04;45.07;;;3.97;;
14306;SDS011;7237;49.500;11.400;2022-10-04T02:40:35;10.10;;;2.63;;
14306;SDS011;7237;49.500;11.400;2022-10-04T02:43:05;20.03;;;3.00;;
14306;SDS011;7237;49.500;11.400;2022-10-04T02:45:38;36.30;;;3.83;;
14306;SDS011;7237;49.500;11.400;2022-10-04T02:48:12;5.70;;;2.70;;
14306;SDS011;7237;49.500;11.400;2022-10-04T02:50:44;27.57;;;3.40;;
14306;SDS011;7237;49.500;11.400;2022-10-04T02:53:15;9.70;;;2.60;;
14306;SDS011;7237;49.500;11.400;2022-10-04T02:55:44;20.57;;;2.97;;
14306;SDS011;7237;49.500;11.400;2022-10-04T02:58:12;29.37;;;3.23;;
14306;SDS011;7237;49.500;11.400;2022-10-04T03:00:46;30.83;;;3.70;;
14306;SDS011;7237;49.500;11.400;2022-10-04T03:03:15;11.77;;;3.27;;
14306;SDS011;7237;49.500;11.400;2022-10-04T03:05:44;5.27;;;2.87;;
14306;SDS011;7237;49.500;11.400;2022-10-04T03:08:11;5.60;;;2.80;;
14306;SDS011;7237;49.500;11.400;2022-10-04T03:10:40;26.23;;;3.50;;
14306;SDS011;7237;49.500;11.400;2022-10-04T03:13:07;11.63;;;3.27;;
14306;SDS011;7237;49.500;11.400;2022-10-04T03:15:35;14.67;;;3.33;;
14306;SDS011;7237;49.500;11.400;2022-10-04T03:18:03;9.97;;;2.60;;
14306;SDS011;7237;49.500;11.400;2022-10-04T03:20:30;33.13;;;3.17;;
14306;SDS011;7237;49.500;11.400;2022-10-04T03:22:58;22.67;;;3.17;;
14306;SDS011;7237;49.500;11.400;2022-10-04T03:25:27;6.87;;;3.00;;
14306;SDS011;7237;49.500;11.400;2022-10-04T03:27:55;42.03;;;3.77;;
14306;SDS011;7237;49.500;11.400;2022-10-04T03:30:25;22.93;;;3.03;;
14306;SDS011;7237;49.500;11.400;2022-10-04T03:32:53;6.07;;;3.13;;
14306;SDS011;7237;49.500;11.400;2022-10-04T03:35:24;6.80;;;3.47;;
14306;SDS011;7237;49.500;11.400;2022-10-04T03:37:54;6.77;;;2.90;;
14306;SDS011;7237;49.500;11.400;2022-10-04T03:40:22;7.33;;;3.20;;
14306;SDS011;7237;49.500;11.400;2022-10-04T03:42:51;7.53;;;2.80;;
14306;SDS011;7237;49.500;11.400;2022-10-04T03:45:19;4.30;;;3.00;;
14306;SDS011;7237;49.500;11.400;2022-10-04T03:47:48;8.67;;;3.40;;
14306;SDS011;7237;49.500;11.400;2022-10-04T03:50:17;3.97;;;3.10;;
14306;SDS011;7237;49.500;11.400;2022-10-04T03:52:47;20.63;;;3.43;;
14306;SDS011;7237;49.500;11.400;2022-10-04T03:55:15;24.17;;;4.30;;
14306;SDS011;7237;49.500;11.400;2022-10-04T03:57:43;6.47;;;3.50;;
14306;SDS011;7237;49.500;11.400;2022-10-04T04:00:13;30.33;;;4.10;;
14306;SDS011;7237;49.500;11.400;2022-10-04T04:02:41;5.27;;;3.17;;
14306;SDS011;7237;49.500;11.400;2022-10-04T04:05:10;7.87;;;3.43;;
14306;SDS011;7237;49.500;11.400;2022-10-04T04:07:41;16.60;;;3.83;;
14306;SDS011;7237;49.500;11.400;2022-10-04T04:10:15;7.80;;;3.50;;
14306;SDS011;7237;49.500;11.400;2022-10-04T04:12:45;17.83;;;3.70;;
14306;SDS011;7237;49.500;11.400;2022-10-04T04:15:13;12.23;;;3.87;;
14306;SDS011;7237;49.500;11.400;2022-10-04T04:17:41;8.73;;;3.60;;
14306;SDS011;7237;49.500;11.400;2022-10-04T04:20:14;4.90;;;3.17;;
14306;SDS011;7237;49.500;11.400;2022-10-04T04:22:43;6.00;;;2.60;;
14306;SDS011;7237;49.500;11.400;2022-10-04T04:25:12;8.10;;;3.47;;
14306;SDS011;7237;49.500;11.400;2022-10-04T04:27:41;3.07;;;2.77;;
14306;SDS011;7237;49.500;11.400;2022-10-04T04:30:11;3.90;;;2.83;;
14306;SDS011;7237;49.500;11.400;2022-10-04T04:32:40;3.70;;;2.90;;
14306;SDS011;7237;49.500;11.400;2022-10-04T04:35:19;12.57;;;4.10;;
14306;SDS011;7237;49.500;11.400;2022-10-04T04:38:00;7.33;;;3.53;;
14306;SDS011;7237;49.500;11.400;2022-10-04T04:40:27;16.33;;;3.53;;
14306;SDS011;7237;49.500;11.400;2022-10-04T04:42:56;32.67;;;3.87;;
14306;SDS011;7237;49.500;11.400;2022-10-04T04:45:24;10.23;;;2.97;;
14306;SDS011;7237;49.500;11.400;2022-10-04T04:47:54;48.00;;;4.73;;
14306;SDS011;7237;49.500;11.400;2022-10-04T04:50:22;8.53;;;3.00;;
14306;SDS011;7237;49.500;11.400;2022-10-04T04:52:50;10.50;;;3.23;;
14306;SDS011;7237;49.500;11.400;2022-10-04T04:55:18;5.93;;;2.70;;
14306;SDS011;7237;49.500;11.400;2022-10-04T04:57:46;2.50;;;2.27;;
14306;SDS011;7237;49.500;11.400;2022-10-04T05:00:19;3.70;;;2.70;;
14306;SDS011;7237;49.500;11.400;2022-10-04T05:02:51;2.57;;;2.37;;
14306;SDS011;7237;49.500;11.400;2022-10-04T05:05:21;2.60;;;2.40;;
14306;SDS011;7237;49.500;11.400;2022-10-04T05:07:48;4.10;;;2.53;;
14306;SDS011;7237;49.500;11.400;2022-10-04T05:10:27;3.73;;;2.53;;
14306;SDS011;7237;49.500;11.400;2022-10-04T05:12:55;3.07;;;2.77;;
14306;SDS011;7237;49.500;11.400;2022-10-04T05:15:25;4.17;;;2.50;;
14306;SDS011;7237;49.500;11.400;2022-10-04T05:17:52;6.37;;;2.70;;
14306;SDS011;7237;49.500;11.400;2022-10-04T05:20:19;3.80;;;2.67;;
14306;SDS011;7237;49.500;11.400;2022-10-04T05:22:47;3.10;;;2.70;;
14306;SDS011;7237;49.500;11.400;2022-10-04T05:25:17;3.20;;;2.50;;
14306;SDS011;7237;49.500;11.400;2022-10-04T05:27:48;4.23;;;2.70;;
14306;SDS011;7237;49.500;11.400;2022-10-04T05:30:23;6.03;;;2.80;;
14306;SDS011;7237;49.500;11.400;2022-10-04T05:32:56;4.30;;;2.50;;
14306;SDS011;7237;49.500;11.400;2022-10-04T05:35:26;2.90;;;2.43;;
14306;SDS011;7237;49.500;11.400;2022-10-04T05:38:02;3.53;;;2.60;;
14306;SDS011;7237;49.500;11.400;2022-10-04T05:40:34;3.63;;;3.10;;
14306;SDS011;7237;49.500;11.400;2022-10-04T05:43:19;3.20;;;2.70;;
14306;SDS011;7237;49.500;11.400;2022-10-04T05:45:48;3.10;;;2.67;;
14306;SDS011;7237;49.500;11.400;2022-10-04T05:48:33;3.40;;;2.27;;
14306;SDS011;7237;49.500;11.400;2022-10-04T05:51:00;3.17;;;2.20;;
14306;SDS011;7237;49.500;11.400;2022-10-04T05:53:29;3.33;;;2.40;;
14306;SDS011;7237;49.500;11.400;2022-10-04T05:55:59;2.50;;;2.30;;
14306;SDS011;7237;49.500;11.400;2022-10-04T05:58:36;2.50;;;2.30;;
14306;SDS011;7237;49.500;11.400;2022-10-04T06:01:08;3.40;;;2.30;;
14306;SDS011;7237;49.500;11.400;2022-10-04T06:03:48;3.03;;;2.50;;
14306;SDS011;7237;49.500;11.400;2022-10-04T06:06:20;3.37;;;2.10;;
14306;SDS011;7237;49.500;11.400;2022-10-04T06:08:50;2.50;;;2.20;;
14306;SDS011;7237;49.500;11.400;2022-10-04T06:11:30;3.23;;;2.30;;
14306;SDS011;7237;49.500;11.400;2022-10-04T06:14:04;5.90;;;2.50;;
14306;SDS011;7237;49.500;11.400;2022-10-04T06:16:40;4.20;;;2.37;;
14306;SDS011;7237;49.500;11.400;2022-10-04T06:19:19;2.20;;;2.00;;
14306;SDS011;7237;49.500;11.400;2022-10-04T06:21:55;2.47;;;2.20;;
14306;SDS011;7237;49.500;11.400;2022-10-04T06:24:27;3.10;;;2.43;;
14306;SDS011;7237;49.500;11.400;2022-10-04T06:26:57;2.40;;;2.20;;
14306;SDS011;7237;49.500;11.400;2022-10-04T06:29:27;2.77;;;2.40;;
14306;SDS011;7237;49.500;11.400;2022-10-04T06:32:03;4.37;;;2.30;;
14306;SDS011;7237;49.500;11.400;2022-10-04T06:34:42;3.60;;;2.17;;
14306;SDS011;7237;49.500;11.400;2022-10-04T06:37:30;8.30;;;2.70;;
14306;SDS011;7237;49.500;11.400;2022-10-04T06:42:56;4.00;;;2.50;;
14306;SDS011;7237;49.500;11.400;2022-10-04T06:45:31;3.07;;;2.17;;
14306;SDS011;7237;49.500;11.400;2022-10-04T06:48:04;3.30;;;2.60;;
14306;SDS011;7237;49.500;11.400;2022-10-04T06:50:37;3.00;;;2.70;;
14306;SDS011;7237;49.500;11.400;2022-10-04T06:53:10;2.70;;;2.50;;
14306;SDS011;7237;49.500;11.400;2022-10-04T06:58:43;2.90;;;2.53;;
14306;SDS011;7237;49.500;11.400;2022-10-04T07:01:19;4.00;;;2.70;;
14306;SDS011;7237;49.500;11.400;2022-10-04T07:03:50;3.67;;;2.80;;
14306;SDS011;7237;49.500;11.400;2022-10-04T07:06:21;6.53;;;2.87;;
14306;SDS011;7237;49.500;11.400;2022-10-04T07:08:49;3.00;;;2.80;;
14306;SDS011;7237;49.500;11.400;2022-10-04T07:11:17;4.50;;;2.63;;
14306;SDS011;7237;49.500;11.400;2022-10-04T07:13:50;4.23;;;3.00;;
14306;SDS011;7237;49.500;11.400;2022-10-04T07:16:26;6.40;;;2.63;;
14306;SDS011;7237;49.500;11.400;2022-10-04T07:18:56;6.63;;;2.70;;
14306;SDS011;7237;49.500;11.400;2022-10-04T07:21:27;6.93;;;2.67;;
14306;SDS011;7237;49.500;11.400;2022-10-04T07:24:00;3.07;;;2.30;;
14306;SDS011;7237;49.500;11.400;2022-10-04T07:26:28;2.50;;;2.30;;
14306;SDS011;7237;49.500;11.400;2022-10-04T07:28:56;2.27;;;2.03;;
14306;SDS011;7237;49.500;11.400;2022-10-04T07:31:43;2.40;;;2.20;;
14306;SDS011;7237;49.500;11.400;2022-10-04T07:34:13;3.37;;;2.30;;
14306;SDS011;7237;49.500;11.400;2022-10-04T07:36:44;2.10;;;2.00;;
14306;SDS011;7237;49.500;11.400;2022-10-04T07:39:12;4.77;;;2.37;;
14306;SDS011;7237;49.500;11.400;2022-10-04T07:41:45;3.60;;;2.30;;
14306;SDS011;7237;49.500;11.400;2022-10-04T07:44:15;4.60;;;2.47;;
14306;SDS011;7237;49.500;11.400;2022-10-04T07:46:47;4.43;;;2.63;;
14306;SDS011;7237;49.500;11.400;2022-10-04T07:49:17;2.93;;;2.30;;
14306;SDS011;7237;49.500;11.400;2022-10-04T07:54:34;3.10;;;2.20;;
14306;SDS011;7237;49.500;11.400;2022-10-04T07:57:05;2.80;;;2.00;;
14306;SDS011;7237;49.500;11.400;2022-10-04T07:59:36;2.20;;;2.00;;
14306;SDS011;7237;49.500;11.400;2022-10-04T08:02:12;2.23;;;2.00;;
14306;SDS011;7237;49.500;11.400;2022-10-04T08:04:43;4.90;;;2.10;;
14306;SDS011;7237;49.500;11.400;2022-10-04T08:07:14;4.30;;;2.07;;
14306;SDS011;7237;49.500;11.400;2022-10-04T08:09:47;4.43;;;2.40;;
14306;SDS011;7237;49.500;11.400;2022-10-04T08:12:18;5.43;;;2.20;;
14306;SDS011;7237;49.500;11.400;2022-10-04T08:14:49;2.43;;;2.10;;
14306;SDS011;7237;49.500;11.400;2022-10-04T08:17:25;4.37;;;2.40;;
14306;SDS011;7237;49.500;11.400;2022-10-04T08:19:57;4.50;;;2.20;;
14306;SDS011;7237;49.500;11.400;2022-10-04T08:22:33;2.37;;;2.10;;
14306;SDS011;7237;49.500;11.400;2022-10-04T08:25:03;3.83;;;2.13;;
14306;SDS011;7237;49.500;11.400;2022-10-04T08:27:38;4.97;;;2.73;;
14306;SDS011;7237;49.500;11.400;2022-10-04T08:30:37;2.13;;;1.87;;
14306;SDS011;7237;49.500;11.400;2022-10-04T08:33:04;2.40;;;2.20;;
14306;SDS011;7237;49.500;11.400;2022-10-04T08:35:34;2.40;;;2.20;;
14306;SDS011;7237;49.500;11.400;2022-10-04T08:38:11;4.00;;;2.20;;
14306;SDS011;7237;49.500;11.400;2022-10-04T08:43:42;4.00;;;2.57;;
14306;SDS011;7237;49.500;11.400;2022-10-04T08:49:05;3.97;;;2.30;;
14306;SDS011;7237;49.500;11.400;2022-10-04T08:51:55;2.67;;;2.37;;
14306;SDS011;7237;49.500;11.400;2022-10-04T08:54:40;4.10;;;2.70;;
14306;SDS011;7237;49.500;11.400;2022-10-04T08:57:12;5.30;;;2.90;;
14306;SDS011;7237;49.500;11.400;2022-10-04T08:59:53;4.43;;;2.50;;
14306;SDS011;7237;49.500;11.400;2022-10-04T09:02:42;4.90;;;3.33;;
14306;SDS011;7237;49.500;11.400;2022-10-04T09:05:18;2.90;;;2.27;;
14306;SDS011;7237;49.500;11.400;2022-10-04T09:07:50;4.40;;;2.50;;
14306;SDS011;7237;49.500;11.400;2022-10-04T09:10:35;4.40;;;2.43;;
14306;SDS011;7237;49.500;11.400;2022-10-04T09:13:05;3.27;;;2.43;;
14306;SDS011;7237;49.500;11.400;2022-10-04T09:15:51;2.93;;;2.30;;
14306;SDS011;7237;49.500;11.400;2022-10-04T09:18:36;4.27;;;2.60;;
14306;SDS011;7237;49.500;11.400;2022-10-04T09:21:11;4.80;;;2.60;;
14306;SDS011;7237;49.500;11.400;2022-10-04T09:23:56;5.13;;;3.10;;
14306;SDS011;7237;49.500;11.400;2022-10-04T09:26:36;3.97;;;2.43;;
14306;SDS011;7237;49.500;11.400;2022-10-04T09:29:20;4.57;;;2.83;;
14306;SDS011;7237;49.500;11.400;2022-10-04T09:32:05;4.60;;;2.83;;
14306;SDS011;7237;49.500;11.400;2022-10-04T09:34:40;5.00;;;2.63;;
14306;SDS011;7237;49.500;11.400;2022-10-04T09:37:18;4.00;;;2.50;;
14306;SDS011;7237;49.500;11.400;2022-10-04T09:39:51;6.13;;;3.07;;
14306;SDS011;7237;49.500;11.400;2022-10-04T09:42:28;5.60;;;3.10;;
14306;SDS011;7237;49.500;11.400;2022-10-04T09:45:10;5.43;;;2.93;;
14306;SDS011;7237;49.500;11.400;2022-10-04T09:47:49;5.47;;;2.53;;
14306;SDS011;7237;49.500;11.400;2022-10-04T09:53:27;8.37;;;2.70;;
14306;SDS011;7237;49.500;11.400;2022-10-04T09:56:02;5.00;;;2.87;;
14306;SDS011;7237;49.500;11.400;2022-10-04T09:58:42;3.33;;;2.80;;
14306;SDS011;7237;49.500;11.400;2022-10-04T10:01:15;6.83;;;2.63;;
14306;SDS011;7237;49.500;11.400;2022-10-04T10:03:51;4.37;;;2.83;;
14306;SDS011;7237;49.500;11.400;2022-10-04T10:06:30;5.25;;;3.00;;
14306;SDS011;7237;49.500;11.400;2022-10-04T10:09:04;4.10;;;2.70;;
14306;SDS011;7237;49.500;11.400;2022-10-04T10:11:34;3.60;;;2.83;;
14306;SDS011;7237;49.500;11.400;2022-10-04T10:14:31;3.03;;;2.67;;
14306;SDS011;7237;49.500;11.400;2022-10-04T10:17:02;6.47;;;3.07;;
14306;SDS011;7237;49.500;11.400;2022-10-04T10:22:46;3.60;;;2.73;;
14306;SDS011;7237;49.500;11.400;2022-10-04T10:25:25;4.73;;;2.80;;
14306;SDS011;7237;49.500;11.400;2022-10-04T10:28:17;7.80;;;3.27;;
14306;SDS011;7237;49.500;11.400;2022-10-04T10:30:54;3.97;;;2.70;;
14306;SDS011;7237;49.500;11.400;2022-10-04T10:33:33;6.97;;;2.93;;
14306;SDS011;7237;49.500;11.400;2022-10-04T10:36:17;4.63;;;2.83;;
14306;SDS011;7237;49.500;11.400;2022-10-04T10:38:56;3.77;;;2.53;;
14306;SDS011;7237;49.500;11.400;2022-10-04T10:41:31;3.93;;;1.80;;
14306;SDS011;7237;49.500;11.400;2022-10-04T10:44:07;4.13;;;2.08;;
14306;SDS011;7237;49.500;11.400;2022-10-04T10:46:47;4.55;;;1.88;;
14306;SDS011;7237;49.500;11.400;2022-10-04T10:49:22;3.35;;;1.60;;
14306;SDS011;7237;49.500;11.400;2022-10-04T10:51:57;2.50;;;1.70;;
14306;SDS011;7237;49.500;11.400;2022-10-04T10:54:41;3.60;;;1.48;;
14306;SDS011;7237;49.500;11.400;2022-10-04T10:57:13;2.75;;;1.40;;
14306;SDS011;7237;49.500;11.400;2022-10-04T11:02:35;2.63;;;1.55;;
14306;SDS011;7237;49.500;11.400;2022-10-04T11:05:17;2.65;;;1.48;;
14306;SDS011;7237;49.500;11.400;2022-10-04T11:07:50;2.50;;;1.75;;
14306;SDS011;7237;49.500;11.400;2022-10-04T11:13:20;2.25;;;1.02;;
14306;SDS011;7237;49.500;11.400;2022-10-04T11:18:48;2.58;;;1.27;;
14306;SDS011;7237;49.500;11.400;2022-10-04T11:21:42;2.05;;;1.23;;
14306;SDS011;7237;49.500;11.400;2022-10-04T11:27:11;3.92;;;1.30;;
14306;SDS011;7237;49.500;11.400;2022-10-04T11:29:45;2.88;;;1.20;;
14306;SDS011;7237;49.500;11.400;2022-10-04T11:37:55;1.45;;;1.30;;
14306;SDS011;7237;49.500;11.400;2022-10-04T11:40:29;2.47;;;1.70;;
14306;SDS011;7237;49.500;11.400;2022-10-04T11:43:09;3.15;;;1.35;;
14306;SDS011;7237;49.500;11.400;2022-10-04T11:45:53;2.08;;;1.40;;
14306;SDS011;7237;49.500;11.400;2022-10-04T11:48:26;2.20;;;1.08;;
14306;SDS011;7237;49.500;11.400;2022-10-04T11:53:46;2.95;;;1.52;;
14306;SDS011;7237;49.500;11.400;2022-10-04T11:56:29;2.13;;;1.42;;
14306;SDS011;7237;49.500;11.400;2022-10-04T11:59:06;3.33;;;1.45;;
14306;SDS011;7237;49.500;11.400;2022-10-04T12:01:42;4.57;;;1.77;;
14306;SDS011;7237;49.500;11.400;2022-10-04T12:04:20;3.83;;;1.80;;
14306;SDS011;7237;49.500;11.400;2022-10-04T12:06:56;6.72;;;1.70;;
14306;SDS011;7237;49.500;11.400;2022-10-04T12:09:25;2.45;;;1.50;;
14306;SDS011;7237;49.500;11.400;2022-10-04T12:12:10;2.95;;;1.85;;
14306;SDS011;7237;49.500;11.400;2022-10-04T12:15:02;3.33;;;1.80;;
14306;SDS011;7237;49.500;11.400;2022-10-04T12:17:45;4.28;;;2.00;;
14306;SDS011;7237;49.500;11.400;2022-10-04T12:20:18;2.83;;;1.80;;
14306;SDS011;7237;49.500;11.400;2022-10-04T12:23:02;2.70;;;1.65;;
14306;SDS011;7237;49.500;11.400;2022-10-04T12:25:38;4.28;;;1.88;;
14306;SDS011;7237;49.500;11.400;2022-10-04T12:31:04;3.40;;;2.00;;
14306;SDS011;7237;49.500;11.400;2022-10-04T12:33:35;4.20;;;1.88;;
14306;SDS011;7237;49.500;11.400;2022-10-04T12:36:08;3.80;;;1.80;;
14306;SDS011;7237;49.500;11.400;2022-10-04T12:38:42;4.03;;;1.73;;
14306;SDS011;7237;49.500;11.400;2022-10-04T12:41:16;2.72;;;1.95;;
14306;SDS011;7237;49.500;11.400;2022-10-04T12:43:48;3.00;;;1.73;;
14306;SDS011;7237;49.500;11.400;2022-10-04T12:46:28;3.00;;;1.60;;
14306;SDS011;7237;49.500;11.400;2022-10-04T12:49:06;3.30;;;1.88;;
14306;SDS011;7237;49.500;11.400;2022-10-04T12:51:41;2.85;;;1.58;;
14306;SDS011;7237;49.500;11.400;2022-10-04T12:54:15;5.43;;;1.60;;
14306;SDS011;7237;49.500;11.400;2022-10-04T12:56:46;5.40;;;2.03;;
14306;SDS011;7237;49.500;11.400;2022-10-04T12:59:17;4.15;;;1.60;;
14306;SDS011;7237;49.500;11.400;2022-10-04T13:01:50;2.33;;;1.38;;
14306;SDS011;7237;49.500;11.400;2022-10-04T13:04:24;2.65;;;1.08;;
14306;SDS011;7237;49.500;11.400;2022-10-04T13:06:56;4.72;;;1.83;;
14306;SDS011;7237;49.500;11.400;2022-10-04T13:09:28;2.60;;;1.30;;
14306;SDS011;7237;49.500;11.400;2022-10-04T13:12:02;3.35;;;1.52;;
14306;SDS011;7237;49.500;11.400;2022-10-04T13:14:39;6.43;;;1.48;;
14306;SDS011;7237;49.500;11.400;2022-10-04T13:17:12;2.22;;;1.40;;
14306;SDS011;7237;49.500;11.400;2022-10-04T13:19:44;4.88;;;1.60;;
14306;SDS011;7237;49.500;11.400;2022-10-04T13:22:27;1.85;;;1.20;;
14306;SDS011;7237;49.500;11.400;2022-10-04T13:25:00;2.25;;;1.23;;
14306;SDS011;7237;49.500;11.400;2022-10-04T13:27:33;3.42;;;1.42;;
14306;SDS011;7237;49.500;11.400;2022-10-04T13:30:05;4.03;;;1.30;;
14306;SDS011;7237;49.500;11.400;2022-10-04T13:32:34;3.03;;;1.17;;
14306;SDS011;7237;49.500;11.400;2022-10-04T13:35:11;1.73;;;1.30;;
14306;SDS011;7237;49.500;11.400;2022-10-04T13:37:41;2.17;;;1.20;;
14306;SDS011;7237;49.500;11.400;2022-10-04T13:40:22;5.32;;;1.65;;
14306;SDS011;7237;49.500;11.400;2022-10-04T13:43:01;2.40;;;1.20;;
14306;SDS011;7237;49.500;11.400;2022-10-04T13:45:33;4.90;;;1.65;;
14306;SDS011;7237;49.500;11.400;2022-10-04T13:48:07;2.95;;;1.33;;
14306;SDS011;7237;49.500;11.400;2022-10-04T13:50:45;2.00;;;1.33;;
14306;SDS011;7237;49.500;11.400;2022-10-04T13:53:21;1.95;;;1.10;;
14306;SDS011;7237;49.500;11.400;2022-10-04T13:56:13;1.40;;;0.85;;
14306;SDS011;7237;49.500;11.400;2022-10-04T13:59:00;1.52;;;1.20;;
14306;SDS011;7237;49.500;11.400;2022-10-04T14:01:40;4.05;;;1.52;;
14306;SDS011;7237;49.500;11.400;2022-10-04T14:04:15;2.80;;;1.30;;
14306;SDS011;7237;49.500;11.400;2022-10-04T14:07:01;1.55;;;1.20;;
14306;SDS011;7237;49.500;11.400;2022-10-04T14:15:24;2.70;;;1.50;;
14306;SDS011;7237;49.500;11.400;2022-10-04T14:18:02;3.95;;;1.65;;
14306;SDS011;7237;49.500;11.400;2022-10-04T14:23:32;3.88;;;1.50;;
14306;SDS011;7237;49.500;11.400;2022-10-04T14:26:06;2.22;;;1.30;;
14306;SDS011;7237;49.500;11.400;2022-10-04T14:31:57;1.70;;;1.00;;
14306;SDS011;7237;49.500;11.400;2022-10-04T14:34:34;3.50;;;1.25;;
14306;SDS011;7237;49.500;11.400;2022-10-04T14:40:01;3.85;;;1.48;;
14306;SDS011;7237;49.500;11.400;2022-10-04T14:42:41;2.45;;;1.27;;
14306;SDS011;7237;49.500;11.400;2022-10-04T14:45:15;3.92;;;1.60;;
14306;SDS011;7237;49.500;11.400;2022-10-04T14:50:43;3.30;;;1.38;;
14306;SDS011;7237;49.500;11.400;2022-10-04T14:53:15;2.72;;;1.27;;
14306;SDS011;7237;49.500;11.400;2022-10-04T14:55:50;2.28;;;1.35;;
14306;SDS011;7237;49.500;11.400;2022-10-04T14:58:22;2.15;;;1.25;;
14306;SDS011;7237;49.500;11.400;2022-10-04T15:01:01;3.63;;;1.27;;
14306;SDS011;7237;49.500;11.400;2022-10-04T15:03:32;2.78;;;1.30;;
14306;SDS011;7237;49.500;11.400;2022-10-04T15:08:53;4.95;;;1.10;;
14306;SDS011;7237;49.500;11.400;2022-10-04T15:11:33;2.78;;;1.25;;
14306;SDS011;7237;49.500;11.400;2022-10-04T15:14:03;3.13;;;1.25;;
14306;SDS011;7237;49.500;11.400;2022-10-04T15:16:32;3.40;;;1.38;;
14306;SDS011;7237;49.500;11.400;2022-10-04T15:19:03;3.10;;;1.30;;
14306;SDS011;7237;49.500;11.400;2022-10-04T15:21:34;2.15;;;1.60;;
14306;SDS011;7237;49.500;11.400;2022-10-04T15:24:21;4.30;;;1.33;;
14306;SDS011;7237;49.500;11.400;2022-10-04T15:26:54;3.15;;;1.30;;
14306;SDS011;7237;49.500;11.400;2022-10-04T15:29:24;2.88;;;1.30;;
14306;SDS011;7237;49.500;11.400;2022-10-04T15:31:56;2.83;;;1.10;;
14306;SDS011;7237;49.500;11.400;2022-10-04T15:34:30;1.65;;;1.15;;
14306;SDS011;7237;49.500;11.400;2022-10-04T15:37:01;2.70;;;1.10;;
14306;SDS011;7237;49.500;11.400;2022-10-04T15:42:22;2.40;;;1.15;;
14306;SDS011;7237;49.500;11.400;2022-10-04T15:44:59;1.38;;;1.27;;
14306;SDS011;7237;49.500;11.400;2022-10-04T15:47:31;3.38;;;1.30;;
14306;SDS011;7237;49.500;11.400;2022-10-04T15:50:07;2.35;;;1.60;;
14306;SDS011;7237;49.500;11.400;2022-10-04T15:55:42;1.57;;;1.23;;
14306;SDS011;7237;49.500;11.400;2022-10-04T16:01:03;3.90;;;1.63;;
14306;SDS011;7237;49.500;11.400;2022-10-04T16:03:37;3.73;;;1.50;;
14306;SDS011;7237;49.500;11.400;2022-10-04T16:06:07;4.20;;;1.73;;
14306;SDS011;7237;49.500;11.400;2022-10-04T16:08:48;4.33;;;1.60;;
14306;SDS011;7237;49.500;11.400;2022-10-04T16:11:25;5.33;;;1.70;;
14306;SDS011;7237;49.500;11.400;2022-10-04T16:13:59;6.40;;;1.50;;
14306;SDS011;7237;49.500;11.400;2022-10-04T16:22:10;3.60;;;1.60;;
14306;SDS011;7237;49.500;11.400;2022-10-04T16:24:41;3.73;;;1.50;;
14306;SDS011;7237;49.500;11.400;2022-10-04T16:29:54;3.40;;;1.57;;
14306;SDS011;7237;49.500;11.400;2022-10-04T16:32:23;4.67;;;1.50;;
14306;SDS011;7237;49.500;11.400;2022-10-04T16:34:54;7.33;;;1.57;;
14306;SDS011;7237;49.500;11.400;2022-10-04T16:37:31;3.37;;;1.40;;
14306;SDS011;7237;49.500;11.400;2022-10-04T16:40:00;5.40;;;1.70;;
14306;SDS011;7237;49.500;11.400;2022-10-04T16:42:41;6.30;;;1.77;;
14306;SDS011;7237;49.500;11.400;2022-10-04T16:47:59;3.97;;;1.30;;
14306;SDS011;7237;49.500;11.400;2022-10-04T16:50:48;4.77;;;1.67;;